sensor_id;sensor_type;location;lat;lon;timestamp;P1;durP1;ratioP1;P2;durP2;ratioP2
2724;SDS011;1370;52.596;13.112;2022-11-15T00:02:17;40.70;;;26.43;;
2724;SDS011;1370;52.596;13.112;2022-11-15T00:04:42;43.60;;;27.50;;
2724;SDS011;1370;52.596;13.112;2022-11-15T00:07:07;38.33;;;27.40;;
2724;SDS011;1370;52.596;13.112;2022-11-15T00:09:33;44.53;;;28.53;;
2724;SDS011;1370;52.596;13.112;2022-11-15T00:11:58;41.70;;;27.50;;
2724;SDS011;1370;52.596;13.112;2022-11-15T00:14:23;37.67;;;24.97;;
2724;SDS011;1370;52.596;13.112;2022-11-15T00:16:48;53.60;;;29.33;;
2724;SDS011;1370;52.596;13.112;2022-11-15T00:19:14;48.17;;;28.37;;
2724;SDS011;1370;52.596;13.112;2022-11-15T00:21:39;46.70;;;30.70;;
2724;SDS011;1370;52.596;13.112;2022-11-15T00:24:04;46.87;;;28.00;;
2724;SDS011;1370;52.596;13.112;2022-11-15T00:26:30;49.50;;;29.33;;
2724;SDS011;1370;52.596;13.112;2022-11-15T00:28:55;39.30;;;26.40;;
2724;SDS011;1370;52.596;13.112;2022-11-15T00:31:20;42.07;;;28.40;;
2724;SDS011;1370;52.596;13.112;2022-11-15T00:33:46;41.30;;;28.47;;
2724;SDS011;1370;52.596;13.112;2022-11-15T00:36:11;50.37;;;29.13;;
2724;SDS011;1370;52.596;13.112;2022-11-15T00:38:37;43.70;;;29.80;;
2724;SDS011;1370;52.596;13.112;2022-11-15T00:41:04;44.03;;;27.53;;
2724;SDS011;1370;52.596;13.112;2022-11-15T00:43:30;43.03;;;29.00;;
2724;SDS011;1370;52.596;13.112;2022-11-15T00:45:56;48.37;;;28.37;;
2724;SDS011;1370;52.596;13.112;2022-11-15T00:48:21;49.53;;;28.47;;
2724;SDS011;1370;52.596;13.112;2022-11-15T00:50:46;50.13;;;28.60;;
2724;SDS011;1370;52.596;13.112;2022-11-15T00:53:12;43.73;;;29.50;;
2724;SDS011;1370;52.596;13.112;2022-11-15T00:55:37;52.33;;;29.23;;
2724;SDS011;1370;52.596;13.112;2022-11-15T00:58:02;43.70;;;29.73;;
2724;SDS011;1370;52.596;13.112;2022-11-15T01:00:28;47.83;;;29.50;;
2724;SDS011;1370;52.596;13.112;2022-11-15T01:02:53;57.97;;;30.97;;
2724;SDS011;1370;52.596;13.112;2022-11-15T01:05:18;67.23;;;35.30;;
2724;SDS011;1370;52.596;13.112;2022-11-15T01:07:44;60.97;;;34.90;;
2724;SDS011;1370;52.596;13.112;2022-11-15T01:10:09;54.13;;;34.30;;
2724;SDS011;1370;52.596;13.112;2022-11-15T01:12:34;54.57;;;33.50;;
2724;SDS011;1370;52.596;13.112;2022-11-15T01:15:00;51.03;;;30.60;;
2724;SDS011;1370;52.596;13.112;2022-11-15T01:17:25;42.97;;;28.57;;
2724;SDS011;1370;52.596;13.112;2022-11-15T01:19:50;55.93;;;30.67;;
2724;SDS011;1370;52.596;13.112;2022-11-15T01:22:16;46.97;;;29.87;;
2724;SDS011;1370;52.596;13.112;2022-11-15T01:24:41;48.60;;;30.07;;
2724;SDS011;1370;52.596;13.112;2022-11-15T01:27:07;48.90;;;31.40;;
2724;SDS011;1370;52.596;13.112;2022-11-15T01:29:32;53.17;;;32.13;;
2724;SDS011;1370;52.596;13.112;2022-11-15T01:31:57;49.20;;;31.60;;
2724;SDS011;1370;52.596;13.112;2022-11-15T01:34:22;64.63;;;35.40;;
2724;SDS011;1370;52.596;13.112;2022-11-15T01:36:48;58.87;;;36.73;;
2724;SDS011;1370;52.596;13.112;2022-11-15T01:39:13;56.20;;;33.27;;
2724;SDS011;1370;52.596;13.112;2022-11-15T01:41:38;54.40;;;31.63;;
2724;SDS011;1370;52.596;13.112;2022-11-15T01:47:10;60.70;;;33.50;;
2724;SDS011;1370;52.596;13.112;2022-11-15T01:49:39;50.90;;;30.33;;
2724;SDS011;1370;52.596;13.112;2022-11-15T01:52:09;54.10;;;32.90;;
2724;SDS011;1370;52.596;13.112;2022-11-15T01:54:36;50.93;;;30.50;;
2724;SDS011;1370;52.596;13.112;2022-11-15T01:57:02;46.90;;;30.57;;
2724;SDS011;1370;52.596;13.112;2022-11-15T01:59:30;53.80;;;34.07;;
2724;SDS011;1370;52.596;13.112;2022-11-15T02:01:55;51.83;;;31.30;;
2724;SDS011;1370;52.596;13.112;2022-11-15T02:04:25;55.33;;;34.00;;
2724;SDS011;1370;52.596;13.112;2022-11-15T02:06:51;62.80;;;37.50;;
2724;SDS011;1370;52.596;13.112;2022-11-15T02:09:17;58.67;;;36.97;;
2724;SDS011;1370;52.596;13.112;2022-11-15T02:11:42;62.67;;;36.67;;
2724;SDS011;1370;52.596;13.112;2022-11-15T02:14:09;71.10;;;40.73;;
2724;SDS011;1370;52.596;13.112;2022-11-15T02:16:38;54.90;;;33.87;;
2724;SDS011;1370;52.596;13.112;2022-11-15T02:19:20;57.63;;;31.10;;
2724;SDS011;1370;52.596;13.112;2022-11-15T02:22:00;57.50;;;34.50;;
2724;SDS011;1370;52.596;13.112;2022-11-15T02:24:45;59.53;;;32.97;;
2724;SDS011;1370;52.596;13.112;2022-11-15T02:30:29;53.23;;;30.93;;
2724;SDS011;1370;52.596;13.112;2022-11-15T02:33:01;55.20;;;29.47;;
2724;SDS011;1370;52.596;13.112;2022-11-15T02:35:52;45.83;;;28.00;;
2724;SDS011;1370;52.596;13.112;2022-11-15T02:38:34;42.37;;;26.30;;
2724;SDS011;1370;52.596;13.112;2022-11-15T02:41:16;49.83;;;28.43;;
2724;SDS011;1370;52.596;13.112;2022-11-15T02:43:46;53.50;;;28.60;;
2724;SDS011;1370;52.596;13.112;2022-11-15T02:49:39;46.00;;;28.73;;
2724;SDS011;1370;52.596;13.112;2022-11-15T02:52:07;41.23;;;26.07;;
2724;SDS011;1370;52.596;13.112;2022-11-15T02:54:33;46.00;;;28.57;;
2724;SDS011;1370;52.596;13.112;2022-11-15T02:57:00;48.00;;;29.30;;
2724;SDS011;1370;52.596;13.112;2022-11-15T02:59:37;54.57;;;29.50;;
2724;SDS011;1370;52.596;13.112;2022-11-15T03:05:56;42.53;;;26.70;;
2724;SDS011;1370;52.596;13.112;2022-11-15T03:08:00;48.73;;;28.60;;
2724;SDS011;1370;52.596;13.112;2022-11-15T03:13:39;38.80;;;26.53;;
2724;SDS011;1370;52.596;13.112;2022-11-15T03:16:15;44.70;;;28.67;;
2724;SDS011;1370;52.596;13.112;2022-11-15T03:18:49;40.57;;;25.73;;
2724;SDS011;1370;52.596;13.112;2022-11-15T03:21:19;47.13;;;28.60;;
2724;SDS011;1370;52.596;13.112;2022-11-15T03:23:45;42.27;;;28.17;;
2724;SDS011;1370;52.596;13.112;2022-11-15T03:26:12;42.30;;;29.07;;
2724;SDS011;1370;52.596;13.112;2022-11-15T03:28:43;48.17;;;26.47;;
2724;SDS011;1370;52.596;13.112;2022-11-15T03:31:12;43.40;;;28.67;;
2724;SDS011;1370;52.596;13.112;2022-11-15T03:33:57;45.20;;;26.87;;
2724;SDS011;1370;52.596;13.112;2022-11-15T03:36:24;40.40;;;26.03;;
2724;SDS011;1370;52.596;13.112;2022-11-15T03:38:51;45.63;;;28.60;;
2724;SDS011;1370;52.596;13.112;2022-11-15T03:41:22;42.27;;;25.87;;
2724;SDS011;1370;52.596;13.112;2022-11-15T03:43:54;46.30;;;31.23;;
2724;SDS011;1370;52.596;13.112;2022-11-15T03:46:25;41.93;;;25.83;;
2724;SDS011;1370;52.596;13.112;2022-11-15T03:48:54;36.13;;;25.33;;
2724;SDS011;1370;52.596;13.112;2022-11-15T03:51:24;39.97;;;25.60;;
2724;SDS011;1370;52.596;13.112;2022-11-15T03:53:49;44.43;;;27.90;;
2724;SDS011;1370;52.596;13.112;2022-11-15T03:56:15;38.80;;;24.57;;
2724;SDS011;1370;52.596;13.112;2022-11-15T03:58:40;43.80;;;25.30;;
2724;SDS011;1370;52.596;13.112;2022-11-15T04:01:05;42.33;;;26.50;;
2724;SDS011;1370;52.596;13.112;2022-11-15T04:03:31;42.30;;;25.80;;
2724;SDS011;1370;52.596;13.112;2022-11-15T04:05:56;37.73;;;25.80;;
2724;SDS011;1370;52.596;13.112;2022-11-15T04:08:21;40.93;;;24.70;;
2724;SDS011;1370;52.596;13.112;2022-11-15T04:10:48;40.17;;;26.80;;
2724;SDS011;1370;52.596;13.112;2022-11-15T04:13:14;53.27;;;28.03;;
2724;SDS011;1370;52.596;13.112;2022-11-15T04:15:39;42.33;;;26.87;;
2724;SDS011;1370;52.596;13.112;2022-11-15T04:18:04;40.53;;;25.23;;
2724;SDS011;1370;52.596;13.112;2022-11-15T04:20:30;42.03;;;26.70;;
2724;SDS011;1370;52.596;13.112;2022-11-15T04:23:15;42.67;;;25.80;;
2724;SDS011;1370;52.596;13.112;2022-11-15T04:26:08;42.87;;;25.53;;
2724;SDS011;1370;52.596;13.112;2022-11-15T04:28:35;40.50;;;24.30;;
2724;SDS011;1370;52.596;13.112;2022-11-15T04:31:00;44.33;;;26.40;;
2724;SDS011;1370;52.596;13.112;2022-11-15T04:33:25;45.30;;;27.00;;
2724;SDS011;1370;52.596;13.112;2022-11-15T04:35:51;40.07;;;26.17;;
2724;SDS011;1370;52.596;13.112;2022-11-15T04:38:35;45.17;;;26.90;;
2724;SDS011;1370;52.596;13.112;2022-11-15T04:41:01;41.07;;;26.10;;
2724;SDS011;1370;52.596;13.112;2022-11-15T04:43:27;42.80;;;25.80;;
2724;SDS011;1370;52.596;13.112;2022-11-15T04:45:52;42.60;;;27.50;;
2724;SDS011;1370;52.596;13.112;2022-11-15T04:48:18;38.53;;;25.00;;
2724;SDS011;1370;52.596;13.112;2022-11-15T04:50:43;43.63;;;28.17;;
2724;SDS011;1370;52.596;13.112;2022-11-15T04:53:08;36.70;;;25.80;;
2724;SDS011;1370;52.596;13.112;2022-11-15T04:55:33;44.20;;;24.80;;
2724;SDS011;1370;52.596;13.112;2022-11-15T04:57:59;39.33;;;26.70;;
2724;SDS011;1370;52.596;13.112;2022-11-15T05:00:25;38.67;;;25.80;;
2724;SDS011;1370;52.596;13.112;2022-11-15T05:02:51;47.10;;;27.00;;
2724;SDS011;1370;52.596;13.112;2022-11-15T05:05:35;35.83;;;23.93;;
2724;SDS011;1370;52.596;13.112;2022-11-15T05:08:01;40.90;;;25.80;;
2724;SDS011;1370;52.596;13.112;2022-11-15T05:10:26;39.27;;;25.73;;
2724;SDS011;1370;52.596;13.112;2022-11-15T05:12:51;42.23;;;25.40;;
2724;SDS011;1370;52.596;13.112;2022-11-15T05:15:16;39.47;;;25.87;;
2724;SDS011;1370;52.596;13.112;2022-11-15T05:17:42;39.80;;;27.23;;
2724;SDS011;1370;52.596;13.112;2022-11-15T05:20:07;42.30;;;28.33;;
2724;SDS011;1370;52.596;13.112;2022-11-15T05:22:33;43.83;;;29.13;;
2724;SDS011;1370;52.596;13.112;2022-11-15T05:24:58;40.80;;;27.53;;
2724;SDS011;1370;52.596;13.112;2022-11-15T05:27:23;45.60;;;29.80;;
2724;SDS011;1370;52.596;13.112;2022-11-15T05:29:49;44.77;;;28.10;;
2724;SDS011;1370;52.596;13.112;2022-11-15T05:32:14;41.20;;;26.60;;
2724;SDS011;1370;52.596;13.112;2022-11-15T05:34:40;40.93;;;28.13;;
2724;SDS011;1370;52.596;13.112;2022-11-15T05:37:05;46.57;;;28.03;;
2724;SDS011;1370;52.596;13.112;2022-11-15T05:39:31;43.43;;;27.10;;
2724;SDS011;1370;52.596;13.112;2022-11-15T05:42:01;40.53;;;26.83;;
2724;SDS011;1370;52.596;13.112;2022-11-15T05:44:30;39.37;;;25.10;;
2724;SDS011;1370;52.596;13.112;2022-11-15T05:46:56;40.57;;;25.00;;
2724;SDS011;1370;52.596;13.112;2022-11-15T05:49:22;43.57;;;26.20;;
2724;SDS011;1370;52.596;13.112;2022-11-15T05:51:50;53.57;;;29.17;;
2724;SDS011;1370;52.596;13.112;2022-11-15T05:54:16;36.00;;;25.50;;
2724;SDS011;1370;52.596;13.112;2022-11-15T05:56:42;45.70;;;26.30;;
2724;SDS011;1370;52.596;13.112;2022-11-15T05:59:08;48.17;;;29.33;;
2724;SDS011;1370;52.596;13.112;2022-11-15T06:01:33;48.90;;;27.10;;
2724;SDS011;1370;52.596;13.112;2022-11-15T06:03:59;45.20;;;27.67;;
2724;SDS011;1370;52.596;13.112;2022-11-15T06:06:24;42.87;;;26.23;;
2724;SDS011;1370;52.596;13.112;2022-11-15T06:08:49;45.90;;;27.50;;
2724;SDS011;1370;52.596;13.112;2022-11-15T06:11:15;42.53;;;25.87;;
2724;SDS011;1370;52.596;13.112;2022-11-15T06:13:40;41.80;;;25.30;;
2724;SDS011;1370;52.596;13.112;2022-11-15T06:16:05;46.17;;;28.67;;
2724;SDS011;1370;52.596;13.112;2022-11-15T06:18:31;42.17;;;26.67;;
2724;SDS011;1370;52.596;13.112;2022-11-15T06:20:58;45.00;;;26.73;;
2724;SDS011;1370;52.596;13.112;2022-11-15T06:23:24;40.30;;;26.60;;
2724;SDS011;1370;52.596;13.112;2022-11-15T06:25:49;41.87;;;27.50;;
2724;SDS011;1370;52.596;13.112;2022-11-15T06:28:14;45.93;;;27.20;;
2724;SDS011;1370;52.596;13.112;2022-11-15T06:30:40;44.40;;;25.30;;
2724;SDS011;1370;52.596;13.112;2022-11-15T06:33:05;44.47;;;24.40;;
2724;SDS011;1370;52.596;13.112;2022-11-15T06:35:32;42.90;;;24.27;;
2724;SDS011;1370;52.596;13.112;2022-11-15T06:38:02;43.33;;;24.60;;
2724;SDS011;1370;52.596;13.112;2022-11-15T06:40:28;44.87;;;27.20;;
2724;SDS011;1370;52.596;13.112;2022-11-15T06:43:00;39.60;;;26.17;;
2724;SDS011;1370;52.596;13.112;2022-11-15T06:45:26;53.07;;;30.77;;
2724;SDS011;1370;52.596;13.112;2022-11-15T06:47:51;54.13;;;31.00;;
2724;SDS011;1370;52.596;13.112;2022-11-15T06:50:17;48.93;;;27.50;;
2724;SDS011;1370;52.596;13.112;2022-11-15T06:52:42;50.17;;;30.20;;
2724;SDS011;1370;52.596;13.112;2022-11-15T06:55:08;40.80;;;25.93;;
2724;SDS011;1370;52.596;13.112;2022-11-15T06:57:33;50.30;;;28.13;;
2724;SDS011;1370;52.596;13.112;2022-11-15T06:59:58;45.03;;;27.70;;
2724;SDS011;1370;52.596;13.112;2022-11-15T07:02:24;43.43;;;28.07;;
2724;SDS011;1370;52.596;13.112;2022-11-15T07:04:49;42.93;;;27.07;;
2724;SDS011;1370;52.596;13.112;2022-11-15T07:07:14;43.87;;;27.37;;
2724;SDS011;1370;52.596;13.112;2022-11-15T07:09:39;44.37;;;27.80;;
2724;SDS011;1370;52.596;13.112;2022-11-15T07:12:05;41.33;;;26.40;;
2724;SDS011;1370;52.596;13.112;2022-11-15T07:14:30;49.50;;;29.37;;
2724;SDS011;1370;52.596;13.112;2022-11-15T07:16:55;42.53;;;28.70;;
2724;SDS011;1370;52.596;13.112;2022-11-15T07:19:21;44.97;;;28.03;;
2724;SDS011;1370;52.596;13.112;2022-11-15T07:21:46;33.77;;;25.47;;
2724;SDS011;1370;52.596;13.112;2022-11-15T07:24:11;48.07;;;26.77;;
2724;SDS011;1370;52.596;13.112;2022-11-15T07:26:37;38.73;;;26.03;;
2724;SDS011;1370;52.596;13.112;2022-11-15T07:29:02;36.90;;;26.90;;
2724;SDS011;1370;52.596;13.112;2022-11-15T07:31:27;50.37;;;26.23;;
2724;SDS011;1370;52.596;13.112;2022-11-15T07:33:53;48.23;;;28.63;;
2724;SDS011;1370;52.596;13.112;2022-11-15T07:36:18;45.63;;;27.50;;
2724;SDS011;1370;52.596;13.112;2022-11-15T07:38:43;43.27;;;26.17;;
2724;SDS011;1370;52.596;13.112;2022-11-15T07:41:08;40.53;;;24.70;;
2724;SDS011;1370;52.596;13.112;2022-11-15T07:43:34;43.07;;;26.40;;
2724;SDS011;1370;52.596;13.112;2022-11-15T07:46:04;35.97;;;23.77;;
2724;SDS011;1370;52.596;13.112;2022-11-15T07:48:30;45.37;;;23.37;;
2724;SDS011;1370;52.596;13.112;2022-11-15T07:50:55;36.70;;;25.83;;
2724;SDS011;1370;52.596;13.112;2022-11-15T07:53:20;41.93;;;25.77;;
2724;SDS011;1370;52.596;13.112;2022-11-15T07:55:46;42.77;;;25.77;;
2724;SDS011;1370;52.596;13.112;2022-11-15T07:58:11;42.17;;;26.10;;
2724;SDS011;1370;52.596;13.112;2022-11-15T08:00:37;36.73;;;25.40;;
2724;SDS011;1370;52.596;13.112;2022-11-15T08:03:10;50.97;;;30.60;;
2724;SDS011;1370;52.596;13.112;2022-11-15T08:05:37;50.00;;;29.73;;
2724;SDS011;1370;52.596;13.112;2022-11-15T08:08:03;47.47;;;29.10;;
2724;SDS011;1370;52.596;13.112;2022-11-15T08:10:29;39.27;;;28.00;;
2724;SDS011;1370;52.596;13.112;2022-11-15T08:12:58;42.37;;;27.70;;
2724;SDS011;1370;52.596;13.112;2022-11-15T08:15:25;44.83;;;27.70;;
2724;SDS011;1370;52.596;13.112;2022-11-15T08:17:54;46.53;;;28.10;;
2724;SDS011;1370;52.596;13.112;2022-11-15T08:20:20;43.87;;;27.53;;
2724;SDS011;1370;52.596;13.112;2022-11-15T08:22:46;41.30;;;26.77;;
2724;SDS011;1370;52.596;13.112;2022-11-15T08:25:11;47.93;;;28.43;;
2724;SDS011;1370;52.596;13.112;2022-11-15T08:27:36;40.07;;;26.77;;
2724;SDS011;1370;52.596;13.112;2022-11-15T08:30:02;45.43;;;25.77;;
2724;SDS011;1370;52.596;13.112;2022-11-15T08:32:28;38.43;;;25.17;;
2724;SDS011;1370;52.596;13.112;2022-11-15T08:34:53;43.40;;;25.10;;
2724;SDS011;1370;52.596;13.112;2022-11-15T08:37:18;45.27;;;26.43;;
2724;SDS011;1370;52.596;13.112;2022-11-15T08:39:44;37.97;;;24.13;;
2724;SDS011;1370;52.596;13.112;2022-11-15T08:42:09;39.53;;;26.27;;
2724;SDS011;1370;52.596;13.112;2022-11-15T08:44:34;43.37;;;26.20;;
2724;SDS011;1370;52.596;13.112;2022-11-15T08:46:59;39.57;;;25.13;;
2724;SDS011;1370;52.596;13.112;2022-11-15T08:49:25;40.60;;;23.03;;
2724;SDS011;1370;52.596;13.112;2022-11-15T08:51:50;41.47;;;25.20;;
2724;SDS011;1370;52.596;13.112;2022-11-15T08:54:15;36.73;;;21.90;;
2724;SDS011;1370;52.596;13.112;2022-11-15T08:56:40;35.07;;;24.00;;
2724;SDS011;1370;52.596;13.112;2022-11-15T08:59:06;38.30;;;27.23;;
2724;SDS011;1370;52.596;13.112;2022-11-15T09:01:31;33.70;;;25.00;;
2724;SDS011;1370;52.596;13.112;2022-11-15T09:03:57;39.70;;;23.47;;
2724;SDS011;1370;52.596;13.112;2022-11-15T09:06:22;34.73;;;23.30;;
2724;SDS011;1370;52.596;13.112;2022-11-15T09:08:48;33.30;;;23.50;;
2724;SDS011;1370;52.596;13.112;2022-11-15T09:11:13;37.83;;;23.37;;
2724;SDS011;1370;52.596;13.112;2022-11-15T09:13:39;36.80;;;24.20;;
2724;SDS011;1370;52.596;13.112;2022-11-15T09:16:04;44.23;;;24.50;;
2724;SDS011;1370;52.596;13.112;2022-11-15T09:18:30;37.40;;;23.03;;
2724;SDS011;1370;52.596;13.112;2022-11-15T09:20:57;39.67;;;25.33;;
2724;SDS011;1370;52.596;13.112;2022-11-15T09:23:23;36.90;;;21.53;;
2724;SDS011;1370;52.596;13.112;2022-11-15T09:25:49;29.33;;;20.97;;
2724;SDS011;1370;52.596;13.112;2022-11-15T09:28:14;30.50;;;21.20;;
2724;SDS011;1370;52.596;13.112;2022-11-15T09:30:40;31.20;;;19.57;;
2724;SDS011;1370;52.596;13.112;2022-11-15T09:33:08;28.13;;;20.07;;
2724;SDS011;1370;52.596;13.112;2022-11-15T09:35:34;25.97;;;20.40;;
2724;SDS011;1370;52.596;13.112;2022-11-15T09:38:00;27.10;;;18.80;;
2724;SDS011;1370;52.596;13.112;2022-11-15T09:40:25;26.73;;;18.03;;
2724;SDS011;1370;52.596;13.112;2022-11-15T09:45:56;24.90;;;18.00;;
2724;SDS011;1370;52.596;13.112;2022-11-15T09:48:35;24.73;;;17.57;;
2724;SDS011;1370;52.596;13.112;2022-11-15T09:51:08;26.23;;;17.10;;
2724;SDS011;1370;52.596;13.112;2022-11-15T09:53:40;26.70;;;19.37;;
2724;SDS011;1370;52.596;13.112;2022-11-15T09:56:14;19.43;;;15.40;;
2724;SDS011;1370;52.596;13.112;2022-11-15T09:58:55;25.77;;;17.17;;
2724;SDS011;1370;52.596;13.112;2022-11-15T10:01:34;25.17;;;16.43;;
2724;SDS011;1370;52.596;13.112;2022-11-15T10:04:10;22.77;;;16.97;;
2724;SDS011;1370;52.596;13.112;2022-11-15T10:06:36;24.67;;;17.10;;
2724;SDS011;1370;52.596;13.112;2022-11-15T10:09:13;23.87;;;16.80;;
2724;SDS011;1370;52.596;13.112;2022-11-15T10:11:41;24.40;;;19.83;;
2724;SDS011;1370;52.596;13.112;2022-11-15T10:17:02;24.50;;;16.83;;
2724;SDS011;1370;52.596;13.112;2022-11-15T10:22:21;20.67;;;14.97;;
2724;SDS011;1370;52.596;13.112;2022-11-15T10:24:52;23.33;;;15.87;;
2724;SDS011;1370;52.596;13.112;2022-11-15T10:27:26;18.20;;;16.27;;
2724;SDS011;1370;52.596;13.112;2022-11-15T10:29:51;22.33;;;17.20;;
2724;SDS011;1370;52.596;13.112;2022-11-15T10:32:18;21.20;;;14.80;;
2724;SDS011;1370;52.596;13.112;2022-11-15T10:34:45;17.93;;;14.73;;
2724;SDS011;1370;52.596;13.112;2022-11-15T10:37:11;21.13;;;15.37;;
2724;SDS011;1370;52.596;13.112;2022-11-15T10:39:36;19.77;;;15.10;;
2724;SDS011;1370;52.596;13.112;2022-11-15T10:42:18;16.20;;;13.43;;
2724;SDS011;1370;52.596;13.112;2022-11-15T10:44:50;17.60;;;14.90;;
2724;SDS011;1370;52.596;13.112;2022-11-15T10:47:31;16.10;;;14.07;;
2724;SDS011;1370;52.596;13.112;2022-11-15T10:50:01;20.80;;;15.73;;
2724;SDS011;1370;52.596;13.112;2022-11-15T10:52:29;15.17;;;12.67;;
2724;SDS011;1370;52.596;13.112;2022-11-15T10:54:57;16.27;;;14.07;;
2724;SDS011;1370;52.596;13.112;2022-11-15T10:57:28;15.43;;;12.90;;
2724;SDS011;1370;52.596;13.112;2022-11-15T11:00:00;17.33;;;15.50;;
2724;SDS011;1370;52.596;13.112;2022-11-15T11:05:01;14.50;;;12.97;;
2724;SDS011;1370;52.596;13.112;2022-11-15T11:07:29;14.67;;;13.17;;
2724;SDS011;1370;52.596;13.112;2022-11-15T11:09:56;15.63;;;13.87;;
2724;SDS011;1370;52.596;13.112;2022-11-15T11:12:31;13.83;;;12.23;;
2724;SDS011;1370;52.596;13.112;2022-11-15T11:14:58;16.73;;;13.40;;
2724;SDS011;1370;52.596;13.112;2022-11-15T11:17:32;13.00;;;11.70;;
2724;SDS011;1370;52.596;13.112;2022-11-15T11:20:21;15.77;;;13.73;;
2724;SDS011;1370;52.596;13.112;2022-11-15T11:25:53;14.77;;;12.97;;
2724;SDS011;1370;52.596;13.112;2022-11-15T11:28:39;13.00;;;11.70;;
2724;SDS011;1370;52.596;13.112;2022-11-15T11:34:13;15.73;;;12.97;;
2724;SDS011;1370;52.596;13.112;2022-11-15T11:42:34;13.27;;;11.80;;
2724;SDS011;1370;52.596;13.112;2022-11-15T11:47:39;14.17;;;12.67;;
2724;SDS011;1370;52.596;13.112;2022-11-15T11:50:11;15.60;;;12.87;;
2724;SDS011;1370;52.596;13.112;2022-11-15T11:52:59;15.60;;;13.17;;
2724;SDS011;1370;52.596;13.112;2022-11-15T11:55:45;16.50;;;13.50;;
2724;SDS011;1370;52.596;13.112;2022-11-15T11:58:19;22.83;;;13.40;;
2724;SDS011;1370;52.596;13.112;2022-11-15T12:00:52;20.30;;;12.83;;
2724;SDS011;1370;52.596;13.112;2022-11-15T12:03:34;13.70;;;12.33;;
2724;SDS011;1370;52.596;13.112;2022-11-15T12:06:06;15.00;;;11.83;;
2724;SDS011;1370;52.596;13.112;2022-11-15T12:08:58;16.90;;;12.73;;
2724;SDS011;1370;52.596;13.112;2022-11-15T12:11:32;15.47;;;12.13;;
2724;SDS011;1370;52.596;13.112;2022-11-15T12:14:03;15.50;;;13.03;;
2724;SDS011;1370;52.596;13.112;2022-11-15T12:16:42;13.40;;;12.00;;
2724;SDS011;1370;52.596;13.112;2022-11-15T12:19:07;16.73;;;12.37;;
2724;SDS011;1370;52.596;13.112;2022-11-15T12:21:39;14.53;;;11.47;;
2724;SDS011;1370;52.596;13.112;2022-11-15T12:24:53;15.20;;;12.63;;
2724;SDS011;1370;52.596;13.112;2022-11-15T12:27:27;13.90;;;11.40;;
2724;SDS011;1370;52.596;13.112;2022-11-15T12:30:04;16.80;;;13.80;;
2724;SDS011;1370;52.596;13.112;2022-11-15T12:32:35;12.53;;;11.27;;
2724;SDS011;1370;52.596;13.112;2022-11-15T12:35:03;15.97;;;12.90;;
2724;SDS011;1370;52.596;13.112;2022-11-15T12:42:57;13.40;;;12.10;;
2724;SDS011;1370;52.596;13.112;2022-11-15T12:45:37;19.67;;;14.20;;
2724;SDS011;1370;52.596;13.112;2022-11-15T12:58:39;15.20;;;12.73;;
2724;SDS011;1370;52.596;13.112;2022-11-15T13:01:09;16.37;;;13.40;;
2724;SDS011;1370;52.596;13.112;2022-11-15T13:03:35;15.87;;;14.27;;
2724;SDS011;1370;52.596;13.112;2022-11-15T13:06:02;17.17;;;13.70;;
2724;SDS011;1370;52.596;13.112;2022-11-15T13:08:36;14.87;;;13.27;;
2724;SDS011;1370;52.596;13.112;2022-11-15T13:14:25;19.20;;;14.30;;
2724;SDS011;1370;52.596;13.112;2022-11-15T13:17:01;17.80;;;13.20;;
2724;SDS011;1370;52.596;13.112;2022-11-15T13:19:53;18.93;;;13.27;;
2724;SDS011;1370;52.596;13.112;2022-11-15T13:22:23;15.60;;;12.20;;
2724;SDS011;1370;52.596;13.112;2022-11-15T13:27:48;13.80;;;12.03;;
2724;SDS011;1370;52.596;13.112;2022-11-15T13:30:18;20.63;;;12.90;;
2724;SDS011;1370;52.596;13.112;2022-11-15T13:32:45;14.37;;;12.80;;
2724;SDS011;1370;52.596;13.112;2022-11-15T13:35:18;17.87;;;13.07;;
2724;SDS011;1370;52.596;13.112;2022-11-15T13:37:47;16.80;;;13.50;;
2724;SDS011;1370;52.596;13.112;2022-11-15T13:40:26;20.70;;;12.70;;
2724;SDS011;1370;52.596;13.112;2022-11-15T13:42:55;19.27;;;12.80;;
2724;SDS011;1370;52.596;13.112;2022-11-15T13:45:21;15.23;;;11.00;;
2724;SDS011;1370;52.596;13.112;2022-11-15T13:47:56;17.93;;;13.20;;
2724;SDS011;1370;52.596;13.112;2022-11-15T13:50:27;24.03;;;13.87;;
2724;SDS011;1370;52.596;13.112;2022-11-15T13:52:57;18.53;;;13.77;;
2724;SDS011;1370;52.596;13.112;2022-11-15T13:55:24;15.13;;;11.73;;
2724;SDS011;1370;52.596;13.112;2022-11-15T13:57:57;16.73;;;13.00;;
2724;SDS011;1370;52.596;13.112;2022-11-15T14:03:25;13.87;;;11.97;;
2724;SDS011;1370;52.596;13.112;2022-11-15T14:08:37;16.97;;;13.27;;
2724;SDS011;1370;52.596;13.112;2022-11-15T14:11:07;19.73;;;16.00;;
2724;SDS011;1370;52.596;13.112;2022-11-15T14:16:35;19.03;;;12.20;;
2724;SDS011;1370;52.596;13.112;2022-11-15T14:19:01;15.83;;;11.40;;
2724;SDS011;1370;52.596;13.112;2022-11-15T14:21:27;14.93;;;12.80;;
2724;SDS011;1370;52.596;13.112;2022-11-15T14:23:53;14.83;;;12.20;;
2724;SDS011;1370;52.596;13.112;2022-11-15T14:26:28;18.37;;;12.97;;
2724;SDS011;1370;52.596;13.112;2022-11-15T14:28:55;21.47;;;14.50;;
2724;SDS011;1370;52.596;13.112;2022-11-15T14:31:21;19.50;;;12.67;;
2724;SDS011;1370;52.596;13.112;2022-11-15T14:33:46;17.30;;;13.83;;
2724;SDS011;1370;52.596;13.112;2022-11-15T14:36:19;16.63;;;12.37;;
2724;SDS011;1370;52.596;13.112;2022-11-15T14:38:45;19.10;;;13.40;;
2724;SDS011;1370;52.596;13.112;2022-11-15T14:41:17;30.57;;;20.97;;
2724;SDS011;1370;52.596;13.112;2022-11-15T14:43:43;44.03;;;24.13;;
2724;SDS011;1370;52.596;13.112;2022-11-15T14:46:09;33.23;;;21.53;;
2724;SDS011;1370;52.596;13.112;2022-11-15T14:48:34;34.73;;;21.03;;
2724;SDS011;1370;52.596;13.112;2022-11-15T14:50:59;31.63;;;25.23;;
2724;SDS011;1370;52.596;13.112;2022-11-15T14:53:25;39.37;;;27.40;;
2724;SDS011;1370;52.596;13.112;2022-11-15T14:55:50;26.50;;;18.63;;
2724;SDS011;1370;52.596;13.112;2022-11-15T14:58:15;22.13;;;16.60;;
2724;SDS011;1370;52.596;13.112;2022-11-15T15:00:41;25.00;;;16.87;;
2724;SDS011;1370;52.596;13.112;2022-11-15T15:03:06;85.00;;;54.13;;
2724;SDS011;1370;52.596;13.112;2022-11-15T15:05:36;50.57;;;32.33;;
2724;SDS011;1370;52.596;13.112;2022-11-15T15:08:02;108.80;;;56.87;;
2724;SDS011;1370;52.596;13.112;2022-11-15T15:10:31;97.77;;;48.70;;
2724;SDS011;1370;52.596;13.112;2022-11-15T15:13:00;116.73;;;63.93;;
2724;SDS011;1370;52.596;13.112;2022-11-15T15:15:29;88.40;;;48.17;;
2724;SDS011;1370;52.596;13.112;2022-11-15T15:17:59;81.00;;;47.07;;
2724;SDS011;1370;52.596;13.112;2022-11-15T15:20:25;52.30;;;35.20;;
2724;SDS011;1370;52.596;13.112;2022-11-15T15:22:50;47.70;;;31.60;;
2724;SDS011;1370;52.596;13.112;2022-11-15T15:25:34;30.40;;;22.50;;
2724;SDS011;1370;52.596;13.112;2022-11-15T15:28:00;35.27;;;20.00;;
2724;SDS011;1370;52.596;13.112;2022-11-15T15:30:27;33.53;;;20.03;;
2724;SDS011;1370;52.596;13.112;2022-11-15T15:32:53;31.43;;;20.70;;
2724;SDS011;1370;52.596;13.112;2022-11-15T15:35:19;38.53;;;24.37;;
2724;SDS011;1370;52.596;13.112;2022-11-15T15:37:45;32.17;;;22.03;;
2724;SDS011;1370;52.596;13.112;2022-11-15T15:40:18;36.83;;;24.30;;
2724;SDS011;1370;52.596;13.112;2022-11-15T15:42:45;39.70;;;23.03;;
2724;SDS011;1370;52.596;13.112;2022-11-15T15:45:10;42.23;;;27.20;;
2724;SDS011;1370;52.596;13.112;2022-11-15T15:47:35;51.00;;;30.97;;
2724;SDS011;1370;52.596;13.112;2022-11-15T15:50:01;48.80;;;30.83;;
2724;SDS011;1370;52.596;13.112;2022-11-15T15:52:27;44.17;;;27.40;;
2724;SDS011;1370;52.596;13.112;2022-11-15T15:54:52;55.67;;;33.80;;